Summit Station, Ohio
Current Conditions -  °F | °C
As of 4:51 AM on Sunday 25 Jan 2015 (Local Time) from KCMH Reporting Station
Overcast Overcast  
Wind Chill: 29°   Ceiling: 4000
Heat Index: 34°   Visibility: 7mi
Dew Point: 29°   Wind: 6mph
Humidity: 82%   Direction: 190°S
Pressure: 29.75"   Gusts: NA
Location:  40°N, 82.75°W
Report Text: KCMH 250951Z 19005KT 7SM OVC040 01/M02 A2975 RMK AO2 SLP082 T00111017
Loading
Personal Weather Stations






























Interactive Weather Map New forecast layout! Learn more

10-Day Weather Forecast

Advertisements
Track Severe Weather on mobile